Boeing Field King County International Airport
KBFI : now visible

Airfield :











YOU CAN JOIN US ON...

 
LOGIN :

Register | Disclaimer

   EN    FR    IT 

 









Legend :    VFR   Marginal VFR   IFR   Intensive IFR   Very Intensive IFR
Visi :
Ceiling :
>= 8 km
>= 3000ft
5 to 8 km
1000 to 3000 ft
1500m to 5 km
500 to 1000 ft
800 to 1500m
200 to 500 ft
< 800m
< 200 ft
Symbols :   Thunderstorms  Fog  Heavy snow  Heavy precipitations  Wind > 20 kt






- Airport Elevation : 21 ft
- IATA code : BFI


KBFI - Boeing Field King County International

CURRENT METAR :
  • 240911Z VRB03KT 10SM SCT029 OVC070 08/02 A3000 RMK AO2 T00830022 $

EXPIRED METARs :
  • 240853Z VRB06G17KT 10SM BKN028 OVC034 08/03 A3000 RMK AO2 SLP157 T00830028 53022 $
  • 240753Z 00000KT 10SM OVC019 08/04 A2996 RMK AO2 SLP146 T00780044 401060033 $
  • 240653Z 01008G15KT 330V050 10SM BKN022 OVC048 08/03 A2996 RMK AO2 SLP145 T00780033 $

TAF KBFI
Valid from the 24 at 06:00 until the 25 at 06:00 UTC


240528Z 2406/2506 33006KT P6SM BKN018 OVC023
FM240800 02012KT P6SM OVC025
FM241200 36008KT P6SM BKN035
FM241800 02007KT P6SM SCT040 BKN100
KZSE FIR / North America



MET'MAP, your aeronautical weather chart ! - Copyright ORBIFLY December 2007 - Disclaimer

ORBIFLY MET'MAP TEAM :

Programming & Development : Alexandra Zaïnal
Concept & original design : Baudouin d'Aumeries
Assistance for programming : Marc-Olivier Méhu
Technical & hardware support : Manuel Goepfert

Contact : metmap@orbifly.com




SOURCES & CREDITS :

   NOAA       Earth
Advisory